createdAt,value
2023-05-05T00:00:10.027Z,13.20
2023-05-05T00:02:38.191Z,10.63
2023-05-05T00:05:05.186Z,9.98
2023-05-05T00:07:31.759Z,14.02
2023-05-05T00:09:59.372Z,11.05
2023-05-05T00:12:28.559Z,9.10
2023-05-05T00:14:55.247Z,10.43
2023-05-05T00:17:22.240Z,9.68
2023-05-05T00:19:48.986Z,11.15
2023-05-05T00:22:15.615Z,9.88
2023-05-05T00:24:42.239Z,9.55
2023-05-05T00:27:08.790Z,9.07
2023-05-05T00:29:35.253Z,11.25
2023-05-05T00:32:02.120Z,10.30
2023-05-05T00:34:28.740Z,11.43
2023-05-05T00:36:55.233Z,10.75
2023-05-05T00:39:22.080Z,11.50
2023-05-05T00:41:48.622Z,9.65
2023-05-05T00:44:15.255Z,7.68
2023-05-05T00:46:41.920Z,13.65
2023-05-05T00:49:08.701Z,10.40
2023-05-05T00:51:35.383Z,10.80
2023-05-05T00:54:01.967Z,10.90
2023-05-05T00:56:28.584Z,9.52
2023-05-05T00:58:55.234Z,10.98
2023-05-05T01:01:21.952Z,11.75
2023-05-05T01:03:48.536Z,11.45
2023-05-05T01:06:37.417Z,11.35
2023-05-05T01:09:05.371Z,9.80
2023-05-05T01:11:38.165Z,10.32
2023-05-05T01:14:19.248Z,11.00
2023-05-05T01:16:58.293Z,10.82
2023-05-05T01:19:33.701Z,10.57
2023-05-05T01:22:02.452Z,11.27
2023-05-05T01:24:32.037Z,10.15
2023-05-05T01:27:07.782Z,10.13
2023-05-05T01:29:40.363Z,10.02
2023-05-05T01:32:10.817Z,11.38
2023-05-05T01:34:41.697Z,14.73
2023-05-05T01:37:11.630Z,8.85
2023-05-05T01:39:38.775Z,10.00
2023-05-05T01:42:08.262Z,11.52
2023-05-05T01:44:36.518Z,10.68
2023-05-05T01:47:04.631Z,12.23
2023-05-05T01:49:31.546Z,12.63
2023-05-05T01:51:58.943Z,10.98
2023-05-05T01:54:26.251Z,10.32
2023-05-05T01:56:54.424Z,11.35
2023-05-05T01:59:21.162Z,12.05
2023-05-05T02:04:51.506Z,11.70
2023-05-05T02:07:19.849Z,12.48
2023-05-05T02:09:50.684Z,13.43
2023-05-05T02:14:51.225Z,13.60
2023-05-05T02:17:19.552Z,12.85
2023-05-05T02:19:52.652Z,11.80
2023-05-05T02:22:19.724Z,13.40
2023-05-05T02:24:46.535Z,9.98
2023-05-05T02:27:18.287Z,10.13
2023-05-05T02:29:48.817Z,12.60
2023-05-05T02:32:24.527Z,24.73
2023-05-05T02:34:55.151Z,15.68
2023-05-05T02:37:27.184Z,13.05
2023-05-05T02:40:00.565Z,12.25
2023-05-05T02:42:43.207Z,10.77
2023-05-05T02:45:13.355Z,10.32
2023-05-05T02:47:43.487Z,10.77
2023-05-05T02:50:13.776Z,8.60
2023-05-05T02:52:47.228Z,14.63
2023-05-05T02:55:17.488Z,13.70
2023-05-05T02:57:59.121Z,12.63
2023-05-05T03:00:29.357Z,10.88
2023-05-05T03:03:14.420Z,9.88
2023-05-05T03:05:49.492Z,10.05
2023-05-05T03:08:18.558Z,9.18
2023-05-05T03:11:12.451Z,13.00
2023-05-05T03:13:40.821Z,12.93
2023-05-05T03:16:08.499Z,8.57
2023-05-05T03:18:37.805Z,9.77
2023-05-05T03:21:10.151Z,10.65
2023-05-05T03:23:40.010Z,9.25
2023-05-05T03:28:42.430Z,12.63
2023-05-05T03:31:29.490Z,11.27
2023-05-05T03:33:59.801Z,9.25
2023-05-05T03:36:32.460Z,9.53
2023-05-05T03:38:59.744Z,12.45
2023-05-05T03:41:33.925Z,11.82
2023-05-05T03:44:01.096Z,13.30
2023-05-05T03:46:28.187Z,15.45
2023-05-05T03:48:57.534Z,405.70
2023-05-05T03:51:27.137Z,364.73
2023-05-05T03:53:54.918Z,396.98
2023-05-05T03:56:22.972Z,414.65
2023-05-05T03:58:52.694Z,522.83
2023-05-05T04:01:20.550Z,461.00
2023-05-05T04:03:48.190Z,429.63
2023-05-05T04:06:16.404Z,385.90
2023-05-05T04:08:43.890Z,488.02
2023-05-05T04:11:11.242Z,460.48
2023-05-05T04:13:42.024Z,321.45
2023-05-05T04:16:09.891Z,437.48
2023-05-05T04:18:38.498Z,205.20
2023-05-05T04:21:06.586Z,357.42
2023-05-05T04:23:34.326Z,253.10
2023-05-05T04:26:07.250Z,300.05
2023-05-05T04:28:34.692Z,497.40
2023-05-05T04:31:07.470Z,372.80
2023-05-05T04:33:38.075Z,502.20
2023-05-05T04:36:05.952Z,494.92
2023-05-05T04:38:33.872Z,403.60
2023-05-05T04:41:04.750Z,82.55
2023-05-05T04:43:34.259Z,483.60
2023-05-05T04:46:02.043Z,454.42
2023-05-05T04:48:34.521Z,466.13
2023-05-05T04:51:04.911Z,505.67
2023-05-05T04:53:32.809Z,520.88
2023-05-05T04:56:01.064Z,443.58
2023-05-05T04:58:31.508Z,34.33
2023-05-05T05:00:59.050Z,383.25
2023-05-05T05:03:26.279Z,456.75
2023-05-05T05:05:58.141Z,369.17
2023-05-05T05:08:27.137Z,582.00
2023-05-05T05:10:54.621Z,569.03
2023-05-05T05:13:22.815Z,574.00
2023-05-05T05:15:51.164Z,583.35
2023-05-05T05:18:18.938Z,678.30
2023-05-05T05:20:47.217Z,675.78
2023-05-05T05:23:17.306Z,675.10
2023-05-05T05:25:51.023Z,612.67
2023-05-05T05:28:20.523Z,604.67
2023-05-05T05:30:52.985Z,512.38
2023-05-05T05:33:20.549Z,608.35
2023-05-05T05:35:47.948Z,622.20
2023-05-05T05:38:15.896Z,594.40
2023-05-05T05:40:45.718Z,609.58
2023-05-05T05:43:23.210Z,624.33
2023-05-05T05:45:59.178Z,230.75
2023-05-05T05:48:29.494Z,104.72
2023-05-05T05:50:57.654Z,144.63
2023-05-05T05:53:24.971Z,257.90
2023-05-05T05:55:53.072Z,94.80
2023-05-05T05:58:19.881Z,123.00
2023-05-05T06:00:47.984Z,144.93
2023-05-05T06:03:14.918Z,142.95
2023-05-05T06:05:42.242Z,138.10
2023-05-05T06:08:09.211Z,169.70
2023-05-05T06:10:41.865Z,187.73
2023-05-05T06:13:13.539Z,131.63
2023-05-05T06:15:44.262Z,137.65
2023-05-05T06:18:12.981Z,139.15
2023-05-05T06:20:39.983Z,156.43
2023-05-05T06:23:06.949Z,128.57
2023-05-05T06:25:39.326Z,145.48
2023-05-05T06:28:05.907Z,187.77
2023-05-05T06:30:32.872Z,14.45
2023-05-05T06:32:59.940Z,320.88
2023-05-05T06:35:26.691Z,38.90
2023-05-05T06:37:53.310Z,34.53
2023-05-05T06:40:19.828Z,39.70
2023-05-05T06:42:46.374Z,56.13
2023-05-05T06:45:17.913Z,36.45
2023-05-05T06:47:44.671Z,76.72
2023-05-05T06:50:11.701Z,48.65
2023-05-05T06:52:40.009Z,35.55
2023-05-05T06:55:07.036Z,23.20
2023-05-05T06:57:33.744Z,27.73
2023-05-05T07:00:00.510Z,24.35
2023-05-05T07:02:27.173Z,25.20
2023-05-05T07:04:55.543Z,25.98
2023-05-05T07:07:22.343Z,27.10
2023-05-05T07:09:48.912Z,106.82
2023-05-05T07:12:15.581Z,21.45
2023-05-05T07:14:42.167Z,23.55
2023-05-05T07:17:08.691Z,20.50
2023-05-05T07:19:35.259Z,21.98
2023-05-05T07:22:01.735Z,20.67
2023-05-05T07:24:28.275Z,14.48
2023-05-05T07:26:54.902Z,15.00
2023-05-05T07:29:21.378Z,18.23
2023-05-05T07:31:47.962Z,20.58
2023-05-05T07:34:14.737Z,15.73
2023-05-05T07:36:41.621Z,19.15
2023-05-05T07:39:08.357Z,16.92
2023-05-05T07:41:34.823Z,14.25
2023-05-05T07:44:01.503Z,14.82
2023-05-05T07:46:28.233Z,13.82
2023-05-05T07:48:54.782Z,18.85
2023-05-05T07:51:21.533Z,13.75
2023-05-05T07:53:48.156Z,11.00
2023-05-05T07:56:14.698Z,13.70
2023-05-05T07:58:42.251Z,18.92
2023-05-05T08:01:11.126Z,13.43
2023-05-05T08:03:37.888Z,12.35
2023-05-05T08:06:11.202Z,17.50
2023-05-05T08:08:38.033Z,14.52
2023-05-05T08:11:06.502Z,20.95
2023-05-05T08:13:33.251Z,18.00
2023-05-05T08:15:59.827Z,17.63
2023-05-05T08:18:26.624Z,16.10
2023-05-05T08:20:54.659Z,16.02
2023-05-05T08:23:21.645Z,14.77
2023-05-05T08:25:48.265Z,20.83
2023-05-05T08:28:14.761Z,11.27
2023-05-05T08:30:41.454Z,15.90
2023-05-05T08:33:07.942Z,10.35
2023-05-05T08:35:34.527Z,12.05
2023-05-05T08:38:00.984Z,14.43
2023-05-05T08:40:29.965Z,9.15
2023-05-05T08:42:56.917Z,10.65
2023-05-05T08:45:23.620Z,11.30
2023-05-05T08:47:50.269Z,10.90
2023-05-05T08:50:17.375Z,10.35
2023-05-05T08:52:49.192Z,15.68
2023-05-05T08:55:25.723Z,7.35
2023-05-05T08:57:53.218Z,7.78
2023-05-05T09:00:20.170Z,8.30
2023-05-05T09:02:47.227Z,13.98
2023-05-05T09:05:14.215Z,7.28
2023-05-05T09:07:44.231Z,12.90
2023-05-05T09:10:11.610Z,10.18
2023-05-05T09:12:40.475Z,10.68
2023-05-05T09:15:16.568Z,9.35
2023-05-05T09:17:43.842Z,6.90
2023-05-05T09:20:14.114Z,11.25
2023-05-05T09:22:41.891Z,16.00
2023-05-05T09:25:16.038Z,7.30
2023-05-05T09:27:45.845Z,8.65
2023-05-05T09:30:15.117Z,9.45
2023-05-05T09:32:44.955Z,9.95
2023-05-05T09:35:11.760Z,8.55
2023-05-05T09:37:38.740Z,10.43
2023-05-05T09:40:06.080Z,10.38
2023-05-05T09:42:32.716Z,6.65
2023-05-05T09:44:59.981Z,6.40
2023-05-05T09:47:36.835Z,8.77
2023-05-05T09:50:04.184Z,10.70
2023-05-05T09:52:31.044Z,8.38
2023-05-05T09:54:57.738Z,6.18
2023-05-05T09:57:32.371Z,9.20
2023-05-05T09:59:59.720Z,15.10
2023-05-05T10:02:33.409Z,6.55
2023-05-05T10:05:26.228Z,10.43
2023-05-05T10:07:52.744Z,7.75
2023-05-05T10:10:19.334Z,9.25
2023-05-05T10:12:46.648Z,7.60
2023-05-05T10:15:15.056Z,6.82
2023-05-05T10:18:05.087Z,8.30
2023-05-05T10:20:33.513Z,6.72
2023-05-05T10:23:02.571Z,14.05
2023-05-05T10:25:33.074Z,9.88
2023-05-05T10:28:00.146Z,9.02
2023-05-05T10:30:29.731Z,7.18
2023-05-05T10:33:30.976Z,11.88
2023-05-05T10:36:00.793Z,6.75
2023-05-05T10:38:28.696Z,5.43
2023-05-05T10:40:55.616Z,8.93
2023-05-05T10:43:22.106Z,6.65
2023-05-05T10:45:48.875Z,5.10
2023-05-05T10:48:21.148Z,5.63
2023-05-05T10:50:50.403Z,9.32
2023-05-05T10:53:19.037Z,14.75
2023-05-05T10:56:04.461Z,8.98
2023-05-05T10:58:31.617Z,11.57
2023-05-05T11:00:58.123Z,7.13
2023-05-05T11:03:24.809Z,11.15
2023-05-05T11:06:03.541Z,7.40
2023-05-05T11:08:30.705Z,6.40
2023-05-05T11:10:57.250Z,12.63
2023-05-05T11:13:23.983Z,8.38
2023-05-05T11:15:54.404Z,5.70
2023-05-05T11:18:30.667Z,5.70
2023-05-05T11:20:57.208Z,13.95
2023-05-05T11:23:23.862Z,9.52
2023-05-05T11:25:51.544Z,8.52
2023-05-05T11:28:19.206Z,4.47
2023-05-05T11:30:55.029Z,13.75
2023-05-05T11:33:29.169Z,11.45
2023-05-05T11:36:05.724Z,7.78
2023-05-05T11:38:39.057Z,6.18
2023-05-05T11:41:08.330Z,7.33
2023-05-05T11:43:34.825Z,7.50
2023-05-05T11:46:19.410Z,8.60
2023-05-05T11:48:48.829Z,7.55
2023-05-05T11:51:16.378Z,9.15
2023-05-05T11:53:46.689Z,3.92
2023-05-05T11:56:18.887Z,8.55
2023-05-05T11:58:45.828Z,12.40
2023-05-05T12:01:13.347Z,5.22
2023-05-05T12:03:40.088Z,10.93
2023-05-05T12:06:07.442Z,9.18
2023-05-05T12:08:37.654Z,6.13
2023-05-05T12:11:05.131Z,8.05
2023-05-05T12:13:31.605Z,8.98
2023-05-05T12:16:08.184Z,5.65
2023-05-05T12:18:34.853Z,10.52
2023-05-05T12:21:01.435Z,7.53
2023-05-05T12:23:30.091Z,9.45
2023-05-05T12:25:56.633Z,10.32
2023-05-05T12:28:23.131Z,7.20
2023-05-05T12:30:59.077Z,9.00
2023-05-05T12:33:26.047Z,6.95
2023-05-05T12:35:52.706Z,8.25
2023-05-05T12:38:19.417Z,7.00
2023-05-05T12:40:50.177Z,12.57
2023-05-05T12:43:32.822Z,7.20
2023-05-05T12:46:10.068Z,7.30
2023-05-05T12:48:40.559Z,7.47
2023-05-05T12:51:12.954Z,8.02
2023-05-05T12:53:39.501Z,5.22
2023-05-05T12:56:06.137Z,11.00
2023-05-05T12:58:51.028Z,4.65
2023-05-05T13:01:17.656Z,6.88
2023-05-05T13:03:44.787Z,6.03
2023-05-05T13:06:21.152Z,11.60
2023-05-05T13:08:48.237Z,12.20
2023-05-05T13:11:15.774Z,7.93
2023-05-05T13:13:42.521Z,9.13
2023-05-05T13:16:09.162Z,10.23
2023-05-05T13:19:04.959Z,5.38
2023-05-05T13:21:31.804Z,10.13
2023-05-05T13:24:05.078Z,7.22
2023-05-05T13:26:35.097Z,5.55
2023-05-05T13:29:01.577Z,7.45
2023-05-05T13:31:28.229Z,7.80
2023-05-05T13:33:54.802Z,6.95
2023-05-05T13:36:21.756Z,4.97
2023-05-05T13:38:48.374Z,9.23
2023-05-05T13:41:15.029Z,5.43
2023-05-05T13:43:41.544Z,10.63
2023-05-05T13:46:19.202Z,6.45
2023-05-05T13:48:46.663Z,8.85
2023-05-05T13:51:13.250Z,5.65
2023-05-05T13:53:43.792Z,6.20
2023-05-05T13:56:10.549Z,7.38
2023-05-05T13:58:37.904Z,9.35
2023-05-05T14:01:04.815Z,12.23
2023-05-05T14:03:31.631Z,9.30
2023-05-05T14:05:58.153Z,12.15
2023-05-05T14:08:24.713Z,6.43
2023-05-05T14:10:52.277Z,13.23
2023-05-05T14:13:19.209Z,8.70
2023-05-05T14:15:45.992Z,5.30
2023-05-05T14:18:12.611Z,6.68
2023-05-05T14:20:42.000Z,7.00
2023-05-05T14:23:08.564Z,6.53
2023-05-05T14:25:35.179Z,4.93
2023-05-05T14:28:01.876Z,33.03
2023-05-05T14:30:28.484Z,4.32
2023-05-05T14:32:55.019Z,5.47
2023-05-05T14:35:21.752Z,18.80
2023-05-05T14:37:48.261Z,13.55
2023-05-05T14:40:14.820Z,6.10
2023-05-05T14:42:41.316Z,8.57
2023-05-05T14:45:09.604Z,6.07
2023-05-05T14:47:36.477Z,5.53
2023-05-05T14:50:03.014Z,11.48
2023-05-05T14:52:29.564Z,4.43
2023-05-05T14:54:56.157Z,8.10
2023-05-05T14:57:22.674Z,5.68
2023-05-05T14:59:52.022Z,5.07
2023-05-05T15:02:19.038Z,6.88
2023-05-05T15:04:46.357Z,12.10
2023-05-05T15:07:14.066Z,7.50
2023-05-05T15:09:40.623Z,4.32
2023-05-05T15:12:07.230Z,9.82
2023-05-05T15:14:33.871Z,5.45
2023-05-05T15:17:00.398Z,10.63
2023-05-05T15:19:27.037Z,35.50
2023-05-05T15:21:54.207Z,10.55
2023-05-05T15:24:21.908Z,5.82
2023-05-05T15:26:48.427Z,14.27
2023-05-05T15:29:15.003Z,6.57
2023-05-05T15:31:41.769Z,7.53
2023-05-05T15:34:08.271Z,7.47
2023-05-05T15:36:34.780Z,4.80
2023-05-05T15:39:01.263Z,7.20
2023-05-05T15:41:29.427Z,9.55
2023-05-05T15:43:56.075Z,8.40
2023-05-05T15:46:22.692Z,4.70
2023-05-05T15:48:49.252Z,6.90
2023-05-05T15:51:16.268Z,4.45
2023-05-05T15:53:42.698Z,6.30
2023-05-05T15:56:09.227Z,11.48
2023-05-05T15:58:36.848Z,4.07
2023-05-05T16:01:03.398Z,6.15
2023-05-05T16:03:30.023Z,6.85
2023-05-05T16:05:56.558Z,5.00
2023-05-05T16:08:23.044Z,8.40
2023-05-05T16:10:49.456Z,10.43
2023-05-05T16:13:16.180Z,3.60
2023-05-05T16:15:42.863Z,4.65
2023-05-05T16:18:09.307Z,6.78
2023-05-05T16:20:36.224Z,8.02
2023-05-05T16:23:02.686Z,7.88
2023-05-05T16:25:29.132Z,6.88
2023-05-05T16:27:57.472Z,6.47
2023-05-05T16:30:23.994Z,4.78
2023-05-05T16:32:51.787Z,7.47
2023-05-05T16:35:18.361Z,10.98
2023-05-05T16:37:44.855Z,7.75
2023-05-05T16:40:11.770Z,7.68
2023-05-05T16:42:38.484Z,6.63
2023-05-05T16:45:05.254Z,43.90
2023-05-05T16:47:31.917Z,9.60
2023-05-05T16:49:58.559Z,8.05
2023-05-05T16:52:25.187Z,4.18
2023-05-05T16:54:55.758Z,7.53
2023-05-05T16:57:23.259Z,10.40
2023-05-05T16:59:50.165Z,9.88
2023-05-05T17:02:16.686Z,8.75
2023-05-05T17:04:43.354Z,8.82
2023-05-05T17:07:09.800Z,6.43
2023-05-05T17:09:36.234Z,5.60
2023-05-05T17:12:04.335Z,11.55
2023-05-05T17:14:31.121Z,5.63
2023-05-05T17:16:57.885Z,7.38
2023-05-05T17:19:24.414Z,8.98
2023-05-05T17:21:50.998Z,5.20
2023-05-05T17:24:17.700Z,5.93
2023-05-05T17:26:44.152Z,6.85
2023-05-05T17:29:12.904Z,5.82
2023-05-05T17:31:39.632Z,7.32
2023-05-05T17:34:06.195Z,7.47
2023-05-05T17:36:33.534Z,85.60
2023-05-05T17:39:00.231Z,7.38
2023-05-05T17:41:27.072Z,8.75
2023-05-05T17:43:53.603Z,9.32
2023-05-05T17:46:20.223Z,4.35
2023-05-05T17:48:46.877Z,8.88
2023-05-05T17:51:13.416Z,6.15
2023-05-05T17:53:39.998Z,4.70
2023-05-05T17:56:08.691Z,9.07
2023-05-05T17:58:35.662Z,6.72
2023-05-05T18:01:02.210Z,7.65
2023-05-05T18:03:28.857Z,10.30
2023-05-05T18:05:55.447Z,7.60
2023-05-05T18:08:22.355Z,6.78
2023-05-05T18:10:48.953Z,10.25
2023-05-05T18:13:15.526Z,5.93
2023-05-05T18:15:42.188Z,7.47
2023-05-05T18:18:08.761Z,7.40
2023-05-05T18:20:35.287Z,6.65
2023-05-05T18:23:01.919Z,8.77
2023-05-05T18:25:28.565Z,8.20
2023-05-05T18:27:55.010Z,10.40
2023-05-05T18:30:21.510Z,8.63
2023-05-05T18:32:48.775Z,11.93
2023-05-05T18:35:15.522Z,9.43
2023-05-05T18:37:42.354Z,7.43
2023-05-05T18:40:10.052Z,9.70
2023-05-05T18:42:36.574Z,10.90
2023-05-05T18:45:03.231Z,8.23
2023-05-05T18:47:29.774Z,14.60
2023-05-05T18:49:56.416Z,11.60
2023-05-05T18:52:22.987Z,7.95
2023-05-05T18:54:49.430Z,12.52
2023-05-05T18:57:15.937Z,7.57
2023-05-05T18:59:42.498Z,7.38
2023-05-05T19:02:09.080Z,9.82
2023-05-05T19:04:37.879Z,11.73
2023-05-05T19:07:04.769Z,17.65
2023-05-05T19:09:31.349Z,14.00
2023-05-05T19:11:57.792Z,12.93
2023-05-05T19:14:24.358Z,8.20
2023-05-05T19:16:51.092Z,15.38
2023-05-05T19:19:17.587Z,13.27
2023-05-05T19:21:44.154Z,10.95
2023-05-05T19:24:10.700Z,12.27
2023-05-05T19:26:37.204Z,10.45
2023-05-05T19:29:03.701Z,10.85
2023-05-05T19:31:31.328Z,12.32
2023-05-05T19:33:59.713Z,12.57
2023-05-05T19:36:26.345Z,8.57
2023-05-05T19:38:52.765Z,12.65
2023-05-05T19:41:19.541Z,12.27
2023-05-05T19:43:50.034Z,10.85
2023-05-05T19:46:19.297Z,9.77
2023-05-05T19:48:46.220Z,11.40
2023-05-05T19:51:12.797Z,7.47
2023-05-05T19:53:42.981Z,7.43
2023-05-05T19:56:09.816Z,11.60
2023-05-05T19:59:12.094Z,9.88
2023-05-05T20:01:38.600Z,8.27
2023-05-05T20:04:05.336Z,13.23
2023-05-05T20:06:32.359Z,9.88
2023-05-05T20:08:59.061Z,8.95
2023-05-05T20:11:25.867Z,9.27
2023-05-05T20:13:53.021Z,11.10
2023-05-05T20:16:19.686Z,9.52
2023-05-05T20:18:46.267Z,10.95
2023-05-05T20:21:12.822Z,9.70
2023-05-05T20:23:39.527Z,9.13
2023-05-05T20:26:06.588Z,12.30
2023-05-05T20:28:33.154Z,12.00
2023-05-05T20:31:00.870Z,10.88
2023-05-05T20:33:30.600Z,12.82
2023-05-05T20:35:57.135Z,12.25
2023-05-05T20:38:23.621Z,9.15
2023-05-05T20:40:50.532Z,14.80
2023-05-05T20:43:16.975Z,9.00
2023-05-05T20:45:44.264Z,7.80
2023-05-05T20:48:11.607Z,11.23
2023-05-05T20:50:38.661Z,9.68
2023-05-05T20:53:07.059Z,13.10
2023-05-05T20:55:33.622Z,10.48
2023-05-05T20:58:00.041Z,12.55
2023-05-05T21:00:27.393Z,7.78
2023-05-05T21:02:54.033Z,11.88
2023-05-05T21:05:20.709Z,11.65
2023-05-05T21:07:47.278Z,26.17
2023-05-05T21:10:13.852Z,12.68
2023-05-05T21:12:41.022Z,9.45
2023-05-05T21:15:08.371Z,7.97
2023-05-05T21:17:35.092Z,10.05
2023-05-05T21:20:01.633Z,14.70
2023-05-05T21:22:28.228Z,7.40
2023-05-05T21:24:55.049Z,10.55
2023-05-05T21:27:22.078Z,9.73
2023-05-05T21:29:50.149Z,9.00
2023-05-05T21:32:16.776Z,9.52
2023-05-05T21:34:43.361Z,8.45
2023-05-05T21:37:09.949Z,8.60
2023-05-05T21:39:36.513Z,7.68
2023-05-05T21:42:03.052Z,11.57
2023-05-05T21:44:29.680Z,8.32
2023-05-05T21:46:56.211Z,14.10
2023-05-05T21:49:22.753Z,11.73
2023-05-05T21:51:50.336Z,8.25
2023-05-05T21:54:16.962Z,7.15
2023-05-05T21:56:43.486Z,9.85
2023-05-05T21:59:09.917Z,8.27
2023-05-05T22:01:36.961Z,8.73
2023-05-05T22:04:03.709Z,9.77
2023-05-05T22:06:30.675Z,8.13
2023-05-05T22:08:57.220Z,9.40
2023-05-05T22:11:23.822Z,11.40
2023-05-05T22:13:50.373Z,9.50
2023-05-05T22:16:19.979Z,8.02
2023-05-05T22:18:46.825Z,9.77
2023-05-05T22:21:13.454Z,6.93
2023-05-05T22:23:41.898Z,9.35
2023-05-05T22:26:08.836Z,10.27
2023-05-05T22:28:35.670Z,7.63
2023-05-05T22:31:02.195Z,8.45
2023-05-05T22:33:28.865Z,10.40
2023-05-05T22:35:55.496Z,14.90
2023-05-05T22:38:22.024Z,8.65
2023-05-05T22:40:49.573Z,11.65
2023-05-05T22:43:16.051Z,9.35
2023-05-05T22:45:43.296Z,7.75
2023-05-05T22:48:10.024Z,12.20
2023-05-05T22:50:36.866Z,7.10
2023-05-05T22:53:03.360Z,11.18
2023-05-05T22:55:29.966Z,8.52
2023-05-05T22:57:56.529Z,9.32
2023-05-05T23:00:22.987Z,10.38
2023-05-05T23:02:49.571Z,11.60
2023-05-05T23:05:16.153Z,8.02
2023-05-05T23:07:42.764Z,6.20
2023-05-05T23:10:09.518Z,9.20
2023-05-05T23:12:35.993Z,6.88
2023-05-05T23:15:02.496Z,8.75
2023-05-05T23:17:28.983Z,8.50
2023-05-05T23:19:55.967Z,9.40
2023-05-05T23:22:22.432Z,5.68
2023-05-05T23:24:49.028Z,7.20
2023-05-05T23:27:15.579Z,8.52
2023-05-05T23:29:42.110Z,5.35
2023-05-05T23:32:08.602Z,7.35
2023-05-05T23:34:35.120Z,5.30
2023-05-05T23:37:02.254Z,6.93
2023-05-05T23:39:30.632Z,9.13
2023-05-05T23:41:57.560Z,7.63
2023-05-05T23:44:24.086Z,6.30
2023-05-05T23:46:50.531Z,9.65
2023-05-05T23:49:17.056Z,6.15
2023-05-05T23:51:43.746Z,6.55
2023-05-05T23:54:10.208Z,9.45
2023-05-05T23:56:36.771Z,6.22
2023-05-05T23:59:03.384Z,9.90
